sensor_id;sensor_type;location;lat;lon;timestamp;pressure;altitude;pressure_sealevel;temperature;humidity
18985;BME280;9626;52.552;13.436;2023-05-25T00:00:02;101702.47;;;11.22;100.00
18985;BME280;9626;52.552;13.436;2023-05-25T00:02:30;101705.13;;;11.25;100.00
18985;BME280;9626;52.552;13.436;2023-05-25T00:04:58;101697.19;;;11.20;100.00
18985;BME280;9626;52.552;13.436;2023-05-25T00:07:25;101698.09;;;11.14;100.00
18985;BME280;9626;52.552;13.436;2023-05-25T00:09:51;101705.16;;;11.15;100.00
18985;BME280;9626;52.552;13.436;2023-05-25T00:12:18;101707.81;;;11.15;100.00
18985;BME280;9626;52.552;13.436;2023-05-25T00:14:45;101704.28;;;11.12;100.00
18985;BME280;9626;52.552;13.436;2023-05-25T00:17:11;101706.97;;;11.10;100.00
18985;BME280;9626;52.552;13.436;2023-05-25T00:19:37;101706.97;;;11.09;100.00
18985;BME280;9626;52.552;13.436;2023-05-25T00:22:10;101705.16;;;11.12;100.00
18985;BME280;9626;52.552;13.436;2023-05-25T00:24:39;101705.16;;;11.15;100.00
18985;BME280;9626;52.552;13.436;2023-05-25T00:27:05;101710.47;;;11.15;100.00
18985;BME280;9626;52.552;13.436;2023-05-25T00:29:33;101709.56;;;11.15;100.00
18985;BME280;9626;52.552;13.436;2023-05-25T00:31:59;101701.63;;;11.13;100.00
18985;BME280;9626;52.552;13.436;2023-05-25T00:34:26;101710.47;;;11.14;100.00
18985;BME280;9626;52.552;13.436;2023-05-25T00:36:52;101705.16;;;11.15;100.00
18985;BME280;9626;52.552;13.436;2023-05-25T00:39:19;101701.59;;;11.21;100.00
18985;BME280;9626;52.552;13.436;2023-05-25T00:41:46;101693.66;;;11.18;100.00
18985;BME280;9626;52.552;13.436;2023-05-25T00:44:13;101698.97;;;11.18;100.00
18985;BME280;9626;52.552;13.436;2023-05-25T00:46:50;101698.03;;;11.21;100.00
18985;BME280;9626;52.552;13.436;2023-05-25T00:49:18;101699.81;;;11.22;100.00
18985;BME280;9626;52.552;13.436;2023-05-25T00:51:45;101697.19;;;11.20;100.00
18985;BME280;9626;52.552;13.436;2023-05-25T00:54:12;101704.28;;;11.18;100.00
18985;BME280;9626;52.552;13.436;2023-05-25T00:56:50;101706.03;;;11.18;100.00
18985;BME280;9626;52.552;13.436;2023-05-25T00:59:43;101702.50;;;11.17;100.00
18985;BME280;9626;52.552;13.436;2023-05-25T01:02:08;101691.91;;;11.15;100.00
18985;BME280;9626;52.552;13.436;2023-05-25T01:04:38;101698.09;;;11.14;100.00
18985;BME280;9626;52.552;13.436;2023-05-25T01:07:07;101691.03;;;11.12;100.00
18985;BME280;9626;52.552;13.436;2023-05-25T01:09:34;101695.47;;;11.11;100.00
18985;BME280;9626;52.552;13.436;2023-05-25T01:12:04;101696.38;;;11.07;100.00
18985;BME280;9626;52.552;13.436;2023-05-25T01:14:31;101691.06;;;11.10;100.00
18985;BME280;9626;52.552;13.436;2023-05-25T01:16:59;101698.13;;;11.11;100.00
18985;BME280;9626;52.552;13.436;2023-05-25T01:19:28;101689.31;;;11.06;100.00
18985;BME280;9626;52.552;13.436;2023-05-25T01:22:02;101696.41;;;11.06;100.00
18985;BME280;9626;52.552;13.436;2023-05-25T01:24:39;101699.94;;;11.02;100.00
18985;BME280;9626;52.552;13.436;2023-05-25T01:27:28;101705.22;;;11.00;100.00
18985;BME280;9626;52.552;13.436;2023-05-25T01:30:01;101707.91;;;10.97;100.00
18985;BME280;9626;52.552;13.436;2023-05-25T01:32:28;101699.97;;;10.94;100.00
18985;BME280;9626;52.552;13.436;2023-05-25T01:34:57;101701.75;;;10.89;100.00
18985;BME280;9626;52.552;13.436;2023-05-25T01:37:26;101703.56;;;10.87;100.00
18985;BME280;9626;52.552;13.436;2023-05-25T01:39:52;101705.31;;;10.85;100.00
18985;BME280;9626;52.552;13.436;2023-05-25T01:42:18;101702.69;;;10.81;100.00
18985;BME280;9626;52.552;13.436;2023-05-25T01:44:44;101715.03;;;10.84;100.00
18985;BME280;9626;52.552;13.436;2023-05-25T01:53:02;101705.34;;;10.75;100.00
18985;BME280;9626;52.552;13.436;2023-05-25T01:55:32;101703.59;;;10.74;100.00
18985;BME280;9626;52.552;13.436;2023-05-25T01:58:04;101703.59;;;10.77;100.00
18985;BME280;9626;52.552;13.436;2023-05-25T02:00:33;101696.53;;;10.76;100.00
18985;BME280;9626;52.552;13.436;2023-05-25T02:02:59;101705.38;;;10.74;100.00
18985;BME280;9626;52.552;13.436;2023-05-25T02:05:28;101704.50;;;10.73;100.00
18985;BME280;9626;52.552;13.436;2023-05-25T02:07:54;101700.94;;;10.73;100.00
18985;BME280;9626;52.552;13.436;2023-05-25T02:10:20;101699.19;;;10.70;100.00
18985;BME280;9626;52.552;13.436;2023-05-25T02:12:46;101698.31;;;10.71;100.00
18985;BME280;9626;52.552;13.436;2023-05-25T02:15:14;101695.66;;;10.71;100.00
18985;BME280;9626;52.552;13.436;2023-05-25T02:17:40;101693.00;;;10.74;100.00
18985;BME280;9626;52.552;13.436;2023-05-25T02:20:08;101700.97;;;10.71;100.00
18985;BME280;9626;52.552;13.436;2023-05-25T02:22:34;101699.25;;;10.56;100.00
18985;BME280;9626;52.552;13.436;2023-05-25T02:25:02;101701.94;;;10.52;100.00
18985;BME280;9626;52.552;13.436;2023-05-25T02:27:28;101709.00;;;10.46;100.00
18985;BME280;9626;52.552;13.436;2023-05-25T02:29:54;101710.78;;;10.44;100.00
18985;BME280;9626;52.552;13.436;2023-05-25T02:32:20;101709.91;;;10.36;100.00
18985;BME280;9626;52.552;13.436;2023-05-25T02:34:47;101713.41;;;10.41;100.00
18985;BME280;9626;52.552;13.436;2023-05-25T02:37:13;101723.13;;;10.42;100.00
18985;BME280;9626;52.552;13.436;2023-05-25T02:39:39;101720.50;;;10.41;100.00
18985;BME280;9626;52.552;13.436;2023-05-25T02:42:05;101710.78;;;10.35;100.00
18985;BME280;9626;52.552;13.436;2023-05-25T02:44:31;101713.41;;;10.32;100.00
18985;BME280;9626;52.552;13.436;2023-05-25T02:46:57;101710.78;;;10.23;100.00
18985;BME280;9626;52.552;13.436;2023-05-25T02:49:23;101719.63;;;10.17;100.00
18985;BME280;9626;52.552;13.436;2023-05-25T02:51:49;101711.66;;;10.15;100.00
18985;BME280;9626;52.552;13.436;2023-05-25T02:54:15;101716.97;;;10.09;100.00
18985;BME280;9626;52.552;13.436;2023-05-25T02:56:41;101705.53;;;10.01;100.00
18985;BME280;9626;52.552;13.436;2023-05-25T02:59:07;101709.94;;;9.97;100.00
18985;BME280;9626;52.552;13.436;2023-05-25T03:01:34;101704.66;;;10.05;100.00
18985;BME280;9626;52.552;13.436;2023-05-25T03:04:00;101710.78;;;10.17;100.00
18985;BME280;9626;52.552;13.436;2023-05-25T03:06:26;101713.47;;;10.04;100.00
18985;BME280;9626;52.552;13.436;2023-05-25T03:08:52;101714.34;;;10.06;100.00
18985;BME280;9626;52.552;13.436;2023-05-25T03:11:18;101707.28;;;10.18;100.00
18985;BME280;9626;52.552;13.436;2023-05-25T03:13:44;101711.69;;;10.17;100.00
18985;BME280;9626;52.552;13.436;2023-05-25T03:16:10;101710.81;;;10.13;100.00
18985;BME280;9626;52.552;13.436;2023-05-25T03:18:37;101709.03;;;10.19;100.00
18985;BME280;9626;52.552;13.436;2023-05-25T03:21:03;101714.31;;;10.25;100.00
18985;BME280;9626;52.552;13.436;2023-05-25T03:23:29;101716.97;;;10.19;100.00
18985;BME280;9626;52.552;13.436;2023-05-25T03:25:55;101714.28;;;10.26;100.00
18985;BME280;9626;52.552;13.436;2023-05-25T03:28:21;101720.47;;;10.30;100.00
18985;BME280;9626;52.552;13.436;2023-05-25T03:30:47;101720.47;;;10.31;100.00
18985;BME280;9626;52.552;13.436;2023-05-25T03:33:13;101721.31;;;10.54;100.00
18985;BME280;9626;52.552;13.436;2023-05-25T03:35:39;101722.25;;;10.37;100.00
18985;BME280;9626;52.552;13.436;2023-05-25T03:38:05;101721.38;;;10.20;100.00
18985;BME280;9626;52.552;13.436;2023-05-25T03:40:31;101723.13;;;10.21;100.00
18985;BME280;9626;52.552;13.436;2023-05-25T03:42:57;101721.34;;;10.29;100.00
18985;BME280;9626;52.552;13.436;2023-05-25T03:45:23;101733.72;;;10.30;100.00
18985;BME280;9626;52.552;13.436;2023-05-25T03:47:49;101725.78;;;10.22;100.00
18985;BME280;9626;52.552;13.436;2023-05-25T03:50:15;101726.69;;;10.23;100.00
18985;BME280;9626;52.552;13.436;2023-05-25T03:52:41;101722.25;;;10.14;100.00
18985;BME280;9626;52.552;13.436;2023-05-25T03:55:07;101732.84;;;10.19;100.00
18985;BME280;9626;52.552;13.436;2023-05-25T03:57:33;101732.00;;;10.10;100.00
18985;BME280;9626;52.552;13.436;2023-05-25T03:59:59;101740.78;;;10.03;100.00
18985;BME280;9626;52.552;13.436;2023-05-25T04:02:25;101745.22;;;10.04;100.00
18985;BME280;9626;52.552;13.436;2023-05-25T04:04:51;101744.34;;;10.07;100.00
18985;BME280;9626;52.552;13.436;2023-05-25T04:07:18;101747.88;;;10.10;100.00
18985;BME280;9626;52.552;13.436;2023-05-25T04:09:45;101754.03;;;10.17;100.00
18985;BME280;9626;52.552;13.436;2023-05-25T04:12:11;101758.41;;;10.32;100.00
18985;BME280;9626;52.552;13.436;2023-05-25T04:14:37;101758.44;;;10.35;100.00
18985;BME280;9626;52.552;13.436;2023-05-25T04:17:03;101754.91;;;10.42;100.00
18985;BME280;9626;52.552;13.436;2023-05-25T04:19:29;101760.19;;;10.48;100.00
18985;BME280;9626;52.552;13.436;2023-05-25T04:21:55;101758.34;;;10.66;100.00
18985;BME280;9626;52.552;13.436;2023-05-25T04:24:21;101753.06;;;10.72;100.00
18985;BME280;9626;52.552;13.436;2023-05-25T04:26:47;101754.81;;;10.82;100.00
18985;BME280;9626;52.552;13.436;2023-05-25T04:29:14;101760.97;;;10.85;100.00
18985;BME280;9626;52.552;13.436;2023-05-25T04:31:40;101765.34;;;10.89;100.00
18985;BME280;9626;52.552;13.436;2023-05-25T04:34:08;101770.63;;;10.98;100.00
18985;BME280;9626;52.552;13.436;2023-05-25T04:36:34;101765.28;;;11.04;100.00
18985;BME280;9626;52.552;13.436;2023-05-25T04:39:06;101772.38;;;11.02;100.00
18985;BME280;9626;52.552;13.436;2023-05-25T04:41:32;101766.19;;;10.98;100.00
18985;BME280;9626;52.552;13.436;2023-05-25T04:43:58;101769.75;;;10.99;100.00
18985;BME280;9626;52.552;13.436;2023-05-25T04:46:24;101770.63;;;10.98;100.00
18985;BME280;9626;52.552;13.436;2023-05-25T04:48:50;101765.31;;;11.06;100.00
18985;BME280;9626;52.552;13.436;2023-05-25T04:51:16;101767.03;;;11.07;100.00
18985;BME280;9626;52.552;13.436;2023-05-25T04:53:42;101768.81;;;11.09;100.00
18985;BME280;9626;52.552;13.436;2023-05-25T04:56:08;101773.19;;;11.13;100.00
18985;BME280;9626;52.552;13.436;2023-05-25T04:58:34;101768.78;;;11.12;100.00
18985;BME280;9626;52.552;13.436;2023-05-25T05:01:00;101763.47;;;11.12;100.00
18985;BME280;9626;52.552;13.436;2023-05-25T05:03:27;101761.69;;;11.16;100.00
18985;BME280;9626;52.552;13.436;2023-05-25T05:05:53;101760.81;;;11.17;100.00
18985;BME280;9626;52.552;13.436;2023-05-25T05:08:19;101757.22;;;11.30;100.00
18985;BME280;9626;52.552;13.436;2023-05-25T05:10:44;101756.31;;;11.36;100.00
18985;BME280;9626;52.552;13.436;2023-05-25T05:13:10;101753.63;;;11.38;100.00
18985;BME280;9626;52.552;13.436;2023-05-25T05:15:37;101758.00;;;11.43;100.00
18985;BME280;9626;52.552;13.436;2023-05-25T05:18:03;101756.22;;;11.48;100.00
18985;BME280;9626;52.552;13.436;2023-05-25T05:20:29;101761.47;;;11.55;100.00
18985;BME280;9626;52.552;13.436;2023-05-25T05:22:55;101769.41;;;11.61;100.00
18985;BME280;9626;52.552;13.436;2023-05-25T05:25:21;101770.28;;;11.61;100.00
18985;BME280;9626;52.552;13.436;2023-05-25T05:27:47;101769.38;;;11.67;100.00
18985;BME280;9626;52.552;13.436;2023-05-25T05:30:13;101779.06;;;11.73;100.00
18985;BME280;9626;52.552;13.436;2023-05-25T05:32:39;101775.44;;;11.81;100.00
18985;BME280;9626;52.552;13.436;2023-05-25T05:35:05;101780.66;;;11.98;100.00
18985;BME280;9626;52.552;13.436;2023-05-25T05:37:32;101783.22;;;12.09;100.00
18985;BME280;9626;52.552;13.436;2023-05-25T05:39:58;101787.59;;;12.16;100.00
18985;BME280;9626;52.552;13.436;2023-05-25T05:42:24;101792.81;;;12.23;100.00
18985;BME280;9626;52.552;13.436;2023-05-25T05:44:50;101791.06;;;12.25;100.00
18985;BME280;9626;52.552;13.436;2023-05-25T05:47:16;101793.66;;;12.29;100.00
18985;BME280;9626;52.552;13.436;2023-05-25T05:49:42;101789.16;;;12.38;100.00
18985;BME280;9626;52.552;13.436;2023-05-25T05:52:08;101797.91;;;12.47;100.00
18985;BME280;9626;52.552;13.436;2023-05-25T05:54:35;101790.81;;;12.49;100.00
18985;BME280;9626;52.552;13.436;2023-05-25T05:57:01;101792.50;;;12.57;100.00
18985;BME280;9626;52.552;13.436;2023-05-25T05:59:28;101794.22;;;12.64;100.00
18985;BME280;9626;52.552;13.436;2023-05-25T06:01:54;101796.75;;;12.76;100.00
18985;BME280;9626;52.552;13.436;2023-05-25T06:04:20;101808.97;;;12.90;100.00
18985;BME280;9626;52.552;13.436;2023-05-25T06:06:49;101808.91;;;12.96;100.00
18985;BME280;9626;52.552;13.436;2023-05-25T06:09:16;101808.84;;;13.02;100.00
18985;BME280;9626;52.552;13.436;2023-05-25T06:11:42;101800.72;;;13.11;100.00
18985;BME280;9626;52.552;13.436;2023-05-25T06:14:08;101803.31;;;13.19;100.00
18985;BME280;9626;52.552;13.436;2023-05-25T06:16:35;101800.56;;;13.27;100.00
18985;BME280;9626;52.552;13.436;2023-05-25T06:19:02;101803.94;;;13.40;100.00
18985;BME280;9626;52.552;13.436;2023-05-25T06:21:28;101815.31;;;13.52;100.00
18985;BME280;9626;52.552;13.436;2023-05-25T06:23:54;101814.19;;;13.69;100.00
18985;BME280;9626;52.552;13.436;2023-05-25T06:26:22;101808.72;;;13.78;100.00
18985;BME280;9626;52.552;13.436;2023-05-25T06:28:49;101810.41;;;13.85;100.00
18985;BME280;9626;52.552;13.436;2023-05-25T06:31:15;101809.34;;;13.94;100.00
18985;BME280;9626;52.552;13.436;2023-05-25T06:33:41;101803.03;;;14.00;100.00
18985;BME280;9626;52.552;13.436;2023-05-25T06:36:07;101810.00;;;14.10;100.00
18985;BME280;9626;52.552;13.436;2023-05-25T06:38:33;101812.59;;;14.13;100.00
18985;BME280;9626;52.552;13.436;2023-05-25T06:40:59;101809.00;;;14.16;100.00
18985;BME280;9626;52.552;13.436;2023-05-25T06:43:28;101812.41;;;14.24;100.00
18985;BME280;9626;52.552;13.436;2023-05-25T06:45:54;101813.13;;;14.34;100.00
18985;BME280;9626;52.552;13.436;2023-05-25T06:48:20;101818.25;;;14.46;100.00
18985;BME280;9626;52.552;13.436;2023-05-25T06:50:46;101818.22;;;14.49;100.00
18985;BME280;9626;52.552;13.436;2023-05-25T06:53:13;101812.81;;;14.52;100.00
18985;BME280;9626;52.552;13.436;2023-05-25T06:55:39;101819.72;;;14.66;100.00
18985;BME280;9626;52.552;13.436;2023-05-25T06:58:05;101817.56;;;14.85;100.00
18985;BME280;9626;52.552;13.436;2023-05-25T07:00:31;101810.25;;;14.95;100.00
18985;BME280;9626;52.552;13.436;2023-05-25T07:02:57;101825.16;;;15.07;100.00
18985;BME280;9626;52.552;13.436;2023-05-25T07:05:23;101814.31;;;15.14;100.00
18985;BME280;9626;52.552;13.436;2023-05-25T07:07:49;101815.16;;;15.16;100.00
18985;BME280;9626;52.552;13.436;2023-05-25T07:10:15;101821.13;;;15.28;100.00
18985;BME280;9626;52.552;13.436;2023-05-25T07:12:41;101821.94;;;15.33;100.00
18985;BME280;9626;52.552;13.436;2023-05-25T07:15:08;101821.94;;;15.33;97.46
18985;BME280;9626;52.552;13.436;2023-05-25T07:17:34;101824.53;;;15.36;94.97
18985;BME280;9626;52.552;13.436;2023-05-25T07:20:02;101823.63;;;15.37;92.09
18985;BME280;9626;52.552;13.436;2023-05-25T07:22:29;101820.03;;;15.38;92.07
18985;BME280;9626;52.552;13.436;2023-05-25T07:24:55;101825.16;;;15.47;93.80
18985;BME280;9626;52.552;13.436;2023-05-25T07:27:21;101827.00;;;15.45;88.78
18985;BME280;9626;52.552;13.436;2023-05-25T07:29:47;101824.78;;;15.24;91.90
18985;BME280;9626;52.552;13.436;2023-05-25T07:32:13;101825.00;;;15.13;91.78
18985;BME280;9626;52.552;13.436;2023-05-25T07:34:39;101827.44;;;15.24;92.35
18985;BME280;9626;52.552;13.436;2023-05-25T07:37:06;101828.78;;;15.45;86.96
18985;BME280;9626;52.552;13.436;2023-05-25T07:39:32;101827.00;;;15.45;84.36
18985;BME280;9626;52.552;13.436;2023-05-25T07:41:58;101831.94;;;15.64;78.50
18985;BME280;9626;52.552;13.436;2023-05-25T07:44:24;101829.72;;;15.84;80.76
18985;BME280;9626;52.552;13.436;2023-05-25T07:46:50;101828.97;;;15.76;79.97
18985;BME280;9626;52.552;13.436;2023-05-25T07:49:16;101836.91;;;15.79;79.15
18985;BME280;9626;52.552;13.436;2023-05-25T07:51:42;101842.16;;;15.84;73.19
18985;BME280;9626;52.552;13.436;2023-05-25T07:54:10;101839.81;;;15.68;76.87
18985;BME280;9626;52.552;13.436;2023-05-25T07:56:37;101844.22;;;15.71;76.90
18985;BME280;9626;52.552;13.436;2023-05-25T07:59:03;101834.47;;;15.68;76.52
18985;BME280;9626;52.552;13.436;2023-05-25T08:01:29;101844.75;;;15.88;76.70
18985;BME280;9626;52.552;13.436;2023-05-25T08:03:55;101843.75;;;15.93;78.31
18985;BME280;9626;52.552;13.436;2023-05-25T08:06:22;101847.59;;;15.79;79.36
18985;BME280;9626;52.552;13.436;2023-05-25T08:08:48;101855.47;;;15.87;70.46
18985;BME280;9626;52.552;13.436;2023-05-25T08:11:16;101850.91;;;15.91;70.78
18985;BME280;9626;52.552;13.436;2023-05-25T08:13:42;101852.94;;;15.79;73.16
18985;BME280;9626;52.552;13.436;2023-05-25T08:16:08;101850.19;;;15.84;73.81
18985;BME280;9626;52.552;13.436;2023-05-25T08:18:34;101848.09;;;15.97;66.69
18985;BME280;9626;52.552;13.436;2023-05-25T08:21:00;101847.41;;;16.25;66.61
18985;BME280;9626;52.552;13.436;2023-05-25T08:23:26;101845.97;;;16.47;66.42
18985;BME280;9626;52.552;13.436;2023-05-25T08:25:52;101842.44;;;16.80;67.60
18985;BME280;9626;52.552;13.436;2023-05-25T08:28:22;101853.00;;;16.84;63.22
18985;BME280;9626;52.552;13.436;2023-05-25T08:30:48;101847.06;;;16.73;64.75
18985;BME280;9626;52.552;13.436;2023-05-25T08:33:14;101854.19;;;17.07;64.56
18985;BME280;9626;52.552;13.436;2023-05-25T08:35:40;101853.69;;;16.93;62.04
18985;BME280;9626;52.552;13.436;2023-05-25T08:38:08;101850.09;;;17.25;63.01
18985;BME280;9626;52.552;13.436;2023-05-25T08:40:34;101843.63;;;17.62;60.41
18985;BME280;9626;52.552;13.436;2023-05-25T08:43:00;101845.78;;;17.21;58.35
18985;BME280;9626;52.552;13.436;2023-05-25T08:45:26;101854.16;;;16.74;60.04
18985;BME280;9626;52.552;13.436;2023-05-25T08:47:53;101849.34;;;17.20;59.86
18985;BME280;9626;52.552;13.436;2023-05-25T08:50:23;101846.81;;;18.03;57.13
18985;BME280;9626;52.552;13.436;2023-05-25T08:52:52;101843.56;;;18.49;54.82
18985;BME280;9626;52.552;13.436;2023-05-25T08:55:19;101845.66;;;18.39;54.85
18985;BME280;9626;52.552;13.436;2023-05-25T08:58:05;101838.75;;;17.77;57.32
18985;BME280;9626;52.552;13.436;2023-05-25T09:00:39;101855.09;;;17.37;58.03
18985;BME280;9626;52.552;13.436;2023-05-25T09:03:15;101856.41;;;17.22;59.81
18985;BME280;9626;52.552;13.436;2023-05-25T09:05:42;101849.88;;;17.01;63.56
18985;BME280;9626;52.552;13.436;2023-05-25T09:08:09;101851.88;;;16.95;65.01
18985;BME280;9626;52.552;13.436;2023-05-25T09:10:37;101851.63;;;17.02;66.63
18985;BME280;9626;52.552;13.436;2023-05-25T09:13:04;101850.88;;;16.97;63.04
18985;BME280;9626;52.552;13.436;2023-05-25T09:15:31;101855.63;;;16.86;63.33
18985;BME280;9626;52.552;13.436;2023-05-25T09:17:57;101858.00;;;16.64;63.45
18985;BME280;9626;52.552;13.436;2023-05-25T09:20:23;101856.84;;;16.74;63.75
18985;BME280;9626;52.552;13.436;2023-05-25T09:22:49;101864.75;;;17.12;62.31
18985;BME280;9626;52.552;13.436;2023-05-25T09:25:17;101857.94;;;17.31;61.08
18985;BME280;9626;52.552;13.436;2023-05-25T09:27:46;101858.41;;;17.46;62.63
18985;BME280;9626;52.552;13.436;2023-05-25T09:30:12;101859.28;;;17.46;61.05
18985;BME280;9626;52.552;13.436;2023-05-25T09:32:38;101862.38;;;17.32;59.85
18985;BME280;9626;52.552;13.436;2023-05-25T09:35:08;101864.81;;;17.10;60.57
18985;BME280;9626;52.552;13.436;2023-05-25T09:37:35;101856.31;;;17.26;58.95
18985;BME280;9626;52.552;13.436;2023-05-25T09:40:04;101859.09;;;17.22;56.61
18985;BME280;9626;52.552;13.436;2023-05-25T09:42:34;101859.50;;;17.40;58.05
18985;BME280;9626;52.552;13.436;2023-05-25T09:45:01;101865.84;;;17.66;56.70
18985;BME280;9626;52.552;13.436;2023-05-25T09:47:27;101860.41;;;17.69;56.77
18985;BME280;9626;52.552;13.436;2023-05-25T09:49:55;101866.66;;;17.38;61.81
18985;BME280;9626;52.552;13.436;2023-05-25T09:52:22;101865.56;;;17.15;65.91
18985;BME280;9626;52.552;13.436;2023-05-25T09:54:49;101874.25;;;17.23;64.15
18985;BME280;9626;52.552;13.436;2023-05-25T09:57:18;101864.63;;;17.46;63.86
18985;BME280;9626;52.552;13.436;2023-05-25T09:59:44;101873.84;;;17.67;63.20
18985;BME280;9626;52.552;13.436;2023-05-25T10:02:12;101869.56;;;17.92;64.18
18985;BME280;9626;52.552;13.436;2023-05-25T10:04:38;101863.81;;;18.02;63.25
18985;BME280;9626;52.552;13.436;2023-05-25T10:07:04;101862.38;;;17.92;62.57
18985;BME280;9626;52.552;13.436;2023-05-25T10:09:34;101872.94;;;17.67;59.54
18985;BME280;9626;52.552;13.436;2023-05-25T10:12:03;101870.59;;;17.56;61.93
18985;BME280;9626;52.552;13.436;2023-05-25T10:14:31;101869.59;;;17.60;60.78
18985;BME280;9626;52.552;13.436;2023-05-25T10:17:03;101865.94;;;17.63;60.34
18985;BME280;9626;52.552;13.436;2023-05-25T10:19:45;101870.47;;;17.61;61.10
18985;BME280;9626;52.552;13.436;2023-05-25T10:22:24;101873.25;;;17.86;61.55
18985;BME280;9626;52.552;13.436;2023-05-25T10:25:30;101874.59;;;17.71;61.50
18985;BME280;9626;52.552;13.436;2023-05-25T10:30:57;101880.34;;;17.58;64.83
18985;BME280;9626;52.552;13.436;2023-05-25T10:33:24;101884.31;;;17.45;63.29
18985;BME280;9626;52.552;13.436;2023-05-25T10:35:53;101871.22;;;17.66;63.68
18985;BME280;9626;52.552;13.436;2023-05-25T10:38:19;101884.59;;;17.66;62.95
18985;BME280;9626;52.552;13.436;2023-05-25T10:40:46;101871.00;;;17.72;63.95
18985;BME280;9626;52.552;13.436;2023-05-25T10:43:13;101865.47;;;17.78;64.06
18985;BME280;9626;52.552;13.436;2023-05-25T10:45:41;101865.25;;;17.84;63.45
18985;BME280;9626;52.552;13.436;2023-05-25T10:48:07;101867.75;;;17.92;62.14
18985;BME280;9626;52.552;13.436;2023-05-25T10:50:36;101867.69;;;17.94;61.13
18985;BME280;9626;52.552;13.436;2023-05-25T10:53:06;101865.88;;;17.94;60.78
18985;BME280;9626;52.552;13.436;2023-05-25T10:55:48;101871.34;;;18.19;59.43
18985;BME280;9626;52.552;13.436;2023-05-25T10:58:26;101864.09;;;17.95;59.27
18985;BME280;9626;52.552;13.436;2023-05-25T11:09:02;101859.53;;;17.97;59.97
18985;BME280;9626;52.552;13.436;2023-05-25T11:14:26;101862.03;;;18.03;60.28
18985;BME280;9626;52.552;13.436;2023-05-25T11:17:08;101855.97;;;18.24;60.59
18985;BME280;9626;52.552;13.436;2023-05-25T11:22:31;101864.28;;;18.69;57.85
18985;BME280;9626;52.552;13.436;2023-05-25T11:24:58;101860.19;;;18.32;59.15
18985;BME280;9626;52.552;13.436;2023-05-25T11:27:29;101860.41;;;18.26;60.72
18985;BME280;9626;52.552;13.436;2023-05-25T11:29:55;101868.75;;;18.43;59.84
18985;BME280;9626;52.552;13.436;2023-05-25T11:32:23;101865.63;;;18.57;58.74
18985;BME280;9626;52.552;13.436;2023-05-25T11:34:51;101865.13;;;18.71;58.54
18985;BME280;9626;52.552;13.436;2023-05-25T11:37:18;101864.59;;;18.34;59.08
18985;BME280;9626;52.552;13.436;2023-05-25T11:39:51;101866.69;;;18.24;60.54
18985;BME280;9626;52.552;13.436;2023-05-25T11:42:24;101867.81;;;18.17;60.17
18985;BME280;9626;52.552;13.436;2023-05-25T11:44:50;101872.94;;;18.25;59.79
18985;BME280;9626;52.552;13.436;2023-05-25T11:47:19;101868.44;;;18.52;59.80
18985;BME280;9626;52.552;13.436;2023-05-25T11:49:47;101856.06;;;18.48;58.96
18985;BME280;9626;52.552;13.436;2023-05-25T11:52:18;101863.91;;;18.54;58.94
18985;BME280;9626;52.552;13.436;2023-05-25T11:54:45;101856.59;;;18.33;60.02
18985;BME280;9626;52.552;13.436;2023-05-25T11:57:22;101857.75;;;18.24;61.73
18985;BME280;9626;52.552;13.436;2023-05-25T11:59:55;101853.59;;;18.42;62.46
18985;BME280;9626;52.552;13.436;2023-05-25T12:02:22;101848.19;;;18.44;63.99
18985;BME280;9626;52.552;13.436;2023-05-25T12:04:56;101847.31;;;18.68;63.42
18985;BME280;9626;52.552;13.436;2023-05-25T12:07:24;101848.31;;;18.66;62.80
18985;BME280;9626;52.552;13.436;2023-05-25T12:09:51;101846.38;;;18.44;62.43
18985;BME280;9626;52.552;13.436;2023-05-25T12:12:28;101854.53;;;18.41;63.73
18985;BME280;9626;52.552;13.436;2023-05-25T12:14:54;101851.22;;;18.33;62.13
18985;BME280;9626;52.552;13.436;2023-05-25T12:17:21;101853.75;;;18.37;64.17
18985;BME280;9626;52.552;13.436;2023-05-25T12:19:47;101848.31;;;18.39;66.01
18985;BME280;9626;52.552;13.436;2023-05-25T12:22:13;101847.28;;;18.43;67.66
18985;BME280;9626;52.552;13.436;2023-05-25T12:24:41;101854.88;;;18.57;68.33
18985;BME280;9626;52.552;13.436;2023-05-25T12:27:19;101857.59;;;18.55;68.95
18985;BME280;9626;52.552;13.436;2023-05-25T12:29:48;101862.31;;;18.49;69.23
18985;BME280;9626;52.552;13.436;2023-05-25T12:32:14;101856.97;;;18.49;69.32
18985;BME280;9626;52.552;13.436;2023-05-25T12:34:40;101854.28;;;18.49;69.90
18985;BME280;9626;52.552;13.436;2023-05-25T12:37:17;101846.66;;;18.62;68.67
18985;BME280;9626;52.552;13.436;2023-05-25T12:39:44;101858.31;;;18.61;70.17
18985;BME280;9626;52.552;13.436;2023-05-25T12:42:14;101860.19;;;18.32;71.54
18985;BME280;9626;52.552;13.436;2023-05-25T12:44:41;101850.91;;;18.15;73.29
18985;BME280;9626;52.552;13.436;2023-05-25T12:47:10;101861.75;;;18.12;70.31
18985;BME280;9626;52.552;13.436;2023-05-25T12:49:37;101850.00;;;18.16;71.62
18985;BME280;9626;52.552;13.436;2023-05-25T12:52:04;101855.66;;;18.07;71.20
18985;BME280;9626;52.552;13.436;2023-05-25T12:57:07;101856.97;;;17.94;71.34
18985;BME280;9626;52.552;13.436;2023-05-25T12:59:35;101853.31;;;17.96;70.18
18985;BME280;9626;52.552;13.436;2023-05-25T13:02:03;101838.38;;;18.16;68.22
18985;BME280;9626;52.552;13.436;2023-05-25T13:04:29;101841.31;;;18.35;68.10
18985;BME280;9626;52.552;13.436;2023-05-25T13:06:55;101837.69;;;18.63;63.51
18985;BME280;9626;52.552;13.436;2023-05-25T13:09:24;101842.38;;;18.81;64.94
18985;BME280;9626;52.552;13.436;2023-05-25T13:11:56;101837.47;;;18.69;64.62